D/T METAR WX W/DIR W/SPE G/SPE TEMP DEWP
16/01/19 03:50 EGMD 160350Z AUTO 23020KT 9999 SCT012/// BKN019/// OVC024/// 08/07 Q1012 SW (230°) 23.0mph 8°C 7°C
16/01/19 03:20 EGMD 160320Z AUTO 24019KT 9999 SCT011/// BKN022/// BKN028/// 08/07 Q1012 WSW (240°) 21.9mph 8°C 7°C
16/01/19 02:50 EGMD 160250Z AUTO 23019KT 9999 SCT010/// BKN015/// BKN027/// 08/07 Q1013 SW (230°) 21.9mph 8°C 7°C
16/01/19 02:20 EGMD 160220Z AUTO 23019KT 9999 BKN008/// OVC034/// 08/07 Q1013 SW (230°) 21.9mph 8°C 7°C
16/01/19 01:50 EGMD 160150Z AUTO 23018KT 9999 BKN005/// OVC009/// 08/08 Q1013 SW (230°) 20.7mph 8°C 8°C
16/01/19 01:20 EGMD 160120Z AUTO 23019KT 9999 OVC006/// 08/08 Q1014 SW (230°) 21.9mph 8°C 8°C
16/01/19 00:50 EGMD 160050Z AUTO 23019KT 9999 SCT006/// BKN010/// BKN016/// 08/08 Q1014 SW (230°) 21.9mph 8°C 8°C
16/01/19 00:20 EGMD 160020Z AUTO 23017KT 9999 BKN005/// BKN009/// OVC036/// 08/08 Q1014 SW (230°) 19.6mph 8°C 8°C
15/01/19 23:50 EGMD 152350Z AUTO 23019KT 9999 BKN005/// BKN008/// OVC013/// 08/08 Q1015 SW (230°) 21.9mph 8°C 8°C
15/01/19 23:20 EGMD 152320Z AUTO 25014KT 8000 -RA SCT004/// BKN008/// BKN024/// 09/08 Q1015 -RA WSW (250°) 16.1mph 9°C 8°C
15/01/19 22:50 EGMD 152250Z AUTO 24013KT 9999 BKN006/// BKN011/// BKN015/// 09/08 Q1015 WSW (240°) 15.0mph 9°C 8°C
15/01/19 22:20 EGMD 152220Z AUTO 23014KT 9999 SCT009/// BKN024/// OVC030/// 09/08 Q1016 SW (230°) 16.1mph 9°C 8°C
15/01/19 21:50 EGMD 152150Z AUTO 23013KT 9999 FEW010/// BKN032/// 08/08 Q1016 SW (230°) 15.0mph 8°C 8°C
15/01/19 21:20 EGMD 152120Z AUTO 23011KT 9999 OVC034/// 08/07 Q1017 SW (230°) 12.7mph 8°C 7°C
15/01/19 20:50 EGMD 152050Z AUTO 24011KT 9999 OVC035/// 08/07 Q1017 WSW (240°) 12.7mph 8°C 7°C
15/01/19 20:20 EGMD 152020Z AUTO 24011KT 9999 OVC031/// 08/07 Q1017 WSW (240°) 12.7mph 8°C 7°C
15/01/19 19:50 EGMD 151950Z AUTO 24010KT 9999 OVC031/// 08/07 Q1017 WSW (240°) 11.5mph 8°C 7°C
15/01/19 19:20 EGMD 151920Z AUTO 25011KT 9999 OVC031/// 09/07 Q1017 WSW (250°) 12.7mph 9°C 7°C
15/01/19 18:50 EGMD 151850Z AUTO 24010KT 9999 BKN027/// OVC033/// 09/07 Q1018 WSW (240°) 11.5mph 9°C 7°C
15/01/19 18:20 EGMD 151820Z 24011KT 9999 BKN027 08/07 Q1018 WSW (240°) 12.7mph 8°C 7°C
15/01/19 17:50 EGMD 151750Z 23011KT 9999 BKN030 09/07 Q1018 SW (230°) 12.7mph 9°C 7°C
15/01/19 17:20 EGMD 151720Z 25010KT 9999 BKN028 09/06 Q1018 WSW (250°) 11.5mph 9°C 6°C
15/01/19 16:50 EGMD 151650Z 24011KT 9999 BKN028 08/07 Q1018 WSW (240°) 12.7mph 8°C 7°C
15/01/19 15:50 EGMD 151550Z 24012KT 9999 FEW017 BKN025 09/07 Q1019 WSW (240°) 13.8mph 9°C 7°C
15/01/19 15:20 EGMD 151520Z 24012KT 9999 FEW021 BKN027 09/07 Q1019 WSW (240°) 13.8mph 9°C 7°C
15/01/19 14:20 EGMD 151420Z 24010KT 9999 SCT023 BKN028 09/06 Q1019 WSW (240°) 11.5mph 9°C 6°C
15/01/19 13:50 EGMD 151350Z 23012KT 9999 BKN033 09/06 Q1019 SW (230°) 13.8mph 9°C 6°C
15/01/19 13:20 EGMD 151320Z 23014KT 9999 FEW018 BKN028 09/06 Q1020 SW (230°) 16.1mph 9°C 6°C
15/01/19 12:50 EGMD 151250Z 24014KT 9999 FEW018 BKN028 09/06 Q1020 WSW (240°) 16.1mph 9°C 6°C
15/01/19 12:20 EGMD 151220Z 24011KT 9999 FEW018 BKN029 08/06 Q1020 WSW (240°) 12.7mph 8°C 6°C
15/01/19 11:50 EGMD 151150Z 25011KT 9999 FEW018 BKN028 08/06 Q1021 WSW (250°) 12.7mph 8°C 6°C
15/01/19 10:50 EGMD 151050Z 25010KT 9999 BKN028 08/05 Q1021 WSW (250°) 11.5mph 8°C 5°C
15/01/19 10:20 EGMD 151020Z 25012KT 9999 BKN029 07/05 Q1021 WSW (250°) 13.8mph 7°C 5°C
15/01/19 09:50 EGMD 150950Z 25010KT 9999 BKN027 07/05 Q1021 WSW (250°) 11.5mph 7°C 5°C
15/01/19 09:20 EGMD 150920Z 26011KT 9999 SCT023 BKN029 06/04 Q1022 W (260°) 12.7mph 6°C 4°C
15/01/19 08:50 EGMD 150850Z 27008KT 9999 BKN029 05/04 Q1022 W (270°) 9.2mph 5°C 4°C
15/01/19 07:50 EGMD 150750Z AUTO 26009KT 9999 OVC033/// 04/02 Q1022 W (260°) 10.4mph 4°C 2°C
15/01/19 07:20 EGMD 150720Z AUTO 27010KT 9999 BKN034/// 04/02 Q1022 W (270°) 11.5mph 4°C 2°C
15/01/19 06:50 EGMD 150650Z AUTO 26010KT 9999 NCD 03/01 Q1022 W (260°) 11.5mph 3°C 1°C
15/01/19 05:50 EGMD 150550Z AUTO 26009KT 9999 NCD 03/01 Q1022 W (260°) 10.4mph 3°C 1°C
15/01/19 05:20 EGMD 150520Z AUTO 25010KT 9999 NCD 03/02 Q1022 WSW (250°) 11.5mph 3°C 2°C
15/01/19 04:50 EGMD 150450Z AUTO 26009KT 9999 NCD 03/01 Q1022 W (260°) 10.4mph 3°C 1°C
15/01/19 04:20 EGMD 150420Z AUTO 25008KT 9999 NCD 03/01 Q1022 WSW (250°) 9.2mph 3°C 1°C
15/01/19 03:50 EGMD 150350Z AUTO 26007KT 9999 NCD 02/00 Q1022 W (260°) 8.1mph 2°C 0°C
15/01/19 03:20 EGMD 150320Z AUTO 26006KT 9999 NCD 02/00 Q1023 W (260°) 6.9mph 2°C 0°C
15/01/19 02:50 EGMD 150250Z AUTO 27003KT 9999 NCD 02/00 Q1023 W (270°) 3.5mph 2°C 0°C
15/01/19 02:20 EGMD 150220Z AUTO 28004KT 9999 NCD 02/00 Q1023 W (280°) 4.6mph 2°C 0°C
15/01/19 01:50 EGMD 150150Z AUTO 29004KT 9999 NCD 03/01 Q1023 WNW (290°) 4.6mph 3°C 1°C
15/01/19 01:20 EGMD 150120Z AUTO 27006KT 9999 NCD 03/00 Q1023 W (270°) 6.9mph 3°C 0°C
15/01/19 00:50 EGMD 150050Z AUTO 28007KT 9999 FEW048/// 04/01 Q1023 W (280°) 8.1mph 4°C 1°C
15/01/19 00:20 EGMD 150020Z AUTO 27008KT 9999 FEW048/// 04/02 Q1023 W (270°) 9.2mph 4°C 2°C
14/01/19 23:50 EGMD 142350Z AUTO 27006KT 9999 NCD 03/01 Q1023 W (270°) 6.9mph 3°C 1°C
14/01/19 23:20 EGMD 142320Z AUTO 28006KT 9999 NCD 04/02 Q1023 W (280°) 6.9mph 4°C 2°C
14/01/19 22:50 EGMD 142250Z AUTO 27007KT 9999 NCD 05/03 Q1023 W (270°) 8.1mph 5°C 3°C
14/01/19 22:20 EGMD 142220Z AUTO 27007KT 9999 OVC049/// 06/03 Q1023 W (270°) 8.1mph 6°C 3°C
14/01/19 21:50 EGMD 142150Z AUTO 27006KT 9999 BKN045/// 06/04 Q1023 W (270°) 6.9mph 6°C 4°C
14/01/19 21:20 EGMD 142120Z AUTO 27006KT 9999 NCD 06/03 Q1023 W (270°) 6.9mph 6°C 3°C
14/01/19 20:50 EGMD 142050Z AUTO 27007KT 9999 NCD 06/04 Q1023 W (270°) 8.1mph 6°C 4°C
14/01/19 20:20 EGMD 142020Z AUTO 26006KT 9999 NCD 06/04 Q1023 W (260°) 6.9mph 6°C 4°C
14/01/19 19:50 EGMD 141950Z AUTO 26007KT 9999 NCD 04/02 Q1023 W (260°) 8.1mph 4°C 2°C
14/01/19 19:20 EGMD 141920Z AUTO 27006KT 9999 NCD 04/02 Q1023 W (270°) 6.9mph 4°C 2°C
14/01/19 18:50 EGMD 141850Z AUTO 26007KT 9999 FEW031/// 06/03 Q1023 W (260°) 8.1mph 6°C 3°C
14/01/19 18:20 EGMD 141820Z 26007KT 9999 FEW031 06/03 Q1023 W (260°) 8.1mph 6°C 3°C
14/01/19 17:50 EGMD 141750Z 26004KT 9999 SCT031 07/05 Q1022 W (260°) 4.6mph 7°C 5°C
14/01/19 17:20 EGMD 141720Z 26004KT 9999 SCT031 07/05 Q1022 W (260°) 4.6mph 7°C 5°C
14/01/19 16:50 EGMD 141650Z 28005KT 9999 BKN031 07/04 Q1022 W (280°) 5.8mph 7°C 4°C
14/01/19 16:20 EGMD 141620Z 29006KT 9999 SCT031 08/05 Q1022 WNW (290°) 6.9mph 8°C 5°C
14/01/19 15:50 EGMD 141550Z 29005KT 9999 SCT031 BKN045 08/05 Q1022 WNW (290°) 5.8mph 8°C 5°C
14/01/19 15:20 EGMD 141520Z 30006KT 9999 FEW030 BKN049 09/05 Q1022 WNW (300°) 6.9mph 9°C 5°C
14/01/19 14:20 EGMD 141420Z 31007KT 9999 FEW030 BKN041 09/05 Q1021 NW (310°) 8.1mph 9°C 5°C
14/01/19 13:50 EGMD 141350Z 32010KT 9999 FEW031 BKN040 09/05 Q1021 NW (320°) 11.5mph 9°C 5°C
14/01/19 12:50 EGMD 141250Z 32010KT 9999 FEW026 BKN039 09/05 Q1021 NW (320°) 11.5mph 9°C 5°C
14/01/19 12:20 EGMD 141220Z 33013KT 9999 FEW022 BKN036 09/05 Q1021 NNW (330°) 15.0mph 9°C 5°C
14/01/19 11:50 EGMD 141150Z 33013KT 9999 FEW022 BKN036 09/05 Q1021 NNW (330°) 15.0mph 9°C 5°C
14/01/19 11:20 EGMD 141120Z 32013KT 9999 FEW024 BKN037 09/05 Q1020 NW (320°) 15.0mph 9°C 5°C
14/01/19 10:50 EGMD 141050Z 32013KT 9999 BKN035 08/05 Q1020 NW (320°) 15.0mph 8°C 5°C
14/01/19 10:20 EGMD 141020Z 31010KT 9999 FEW039 08/05 Q1020 NW (310°) 11.5mph 8°C 5°C
14/01/19 09:50 EGMD 140950Z 30009KT 9999 SCT039 08/04 Q1020 WNW (300°) 10.4mph 8°C 4°C
14/01/19 09:20 EGMD 140920Z 27005KT CAVOK 05/03 Q1019 W (270°) 5.8mph 5°C 3°C
14/01/19 08:50 EGMD 140850Z 29006KT 9999 FEW040 05/03 Q1019 WNW (290°) 6.9mph 5°C 3°C
14/01/19 07:50 EGMD 140750Z AUTO 29009KT 9999 NCD 06/03 Q1018 WNW (290°) 10.4mph 6°C 3°C
14/01/19 06:50 EGMD 140650Z AUTO 30009KT 9999 BKN041/// OVC049/// 07/04 Q1018 WNW (300°) 10.4mph 7°C 4°C
14/01/19 06:20 EGMD 140620Z AUTO 30011KT 9999 SCT030/// OVC046/// 08/04 Q1018 WNW (300°) 12.7mph 8°C 4°C
14/01/19 05:50 EGMD 140550Z AUTO 28007KT 9999 BKN044/// 07/04 Q1017 W (280°) 8.1mph 7°C 4°C
14/01/19 05:20 EGMD 140520Z AUTO 31009KT 9999 FEW044/// 06/03 Q1017 NW (310°) 10.4mph 6°C 3°C
14/01/19 04:20 EGMD 140420Z AUTO 31010KT 9999 NCD 07/03 Q1016 NW (310°) 11.5mph 7°C 3°C
14/01/19 03:50 EGMD 140350Z AUTO 31012KT 9999 NCD 07/03 Q1016 NW (310°) 13.8mph 7°C 3°C
14/01/19 03:20 EGMD 140320Z AUTO 32015KT 9999 NCD 08/03 Q1016 NW (320°) 17.3mph 8°C 3°C
14/01/19 02:20 EGMD 140220Z AUTO 31012KT 9999 FEW040/// 07/03 Q1015 NW (310°) 13.8mph 7°C 3°C
14/01/19 01:50 EGMD 140150Z AUTO 32016KT 9999 FEW039/// 08/03 Q1015 NW (320°) 18.4mph 8°C 3°C
14/01/19 01:20 EGMD 140120Z AUTO 31015KT 9999 FEW043/// 08/03 Q1014 NW (310°) 17.3mph 8°C 3°C
14/01/19 00:50 EGMD 140050Z AUTO 30015KT 9999 NCD 08/03 Q1014 WNW (300°) 17.3mph 8°C 3°C
14/01/19 00:20 EGMD 140020Z AUTO 30016KT 9999 NCD 08/03 Q1013 WNW (300°) 18.4mph 8°C 3°C
13/01/19 23:50 EGMD 132350Z AUTO 31015KT 9999 NCD 08/03 Q1013 NW (310°) 17.3mph 8°C 3°C
13/01/19 23:20 EGMD 132320Z AUTO 30014KT 9999 NCD 09/03 Q1013 WNW (300°) 16.1mph 9°C 3°C
13/01/19 22:50 EGMD 132250Z AUTO 32016KT 9999 FEW039/// 09/03 Q1013 NW (320°) 18.4mph 9°C 3°C
13/01/19 22:20 EGMD 132220Z AUTO 33024G36KT 9999 BKN037/// BKN045/// 10/03 Q1013 NNW (330°) 27.6mph 41.4mph 10°C 3°C
13/01/19 21:50 EGMD 132150Z AUTO 32024KT 9999 BKN047/// 11/04 Q1012 NW (320°) 27.6mph 11°C 4°C
13/01/19 21:20 EGMD 132120Z AUTO 32018KT 9999 FEW033/// 11/05 Q1012 NW (320°) 20.7mph 11°C 5°C
13/01/19 20:50 EGMD 132050Z AUTO 31012KT 9999 BKN028/// BKN034/// 11/07 Q1012 NW (310°) 13.8mph 11°C 7°C
13/01/19 20:20 EGMD 132020Z AUTO 28013KT 9999 SCT030/// BKN035/// BKN042/// 11/08 Q1011 W (280°) 15.0mph 11°C 8°C
13/01/19 19:50 EGMD 131950Z AUTO 28011KT 9999 BKN027/// BKN032/// OVC049/// 11/08 Q1011 W (280°) 12.7mph 11°C 8°C
13/01/19 19:20 EGMD 131920Z AUTO 28013KT 9999 SCT025/// BKN030/// OVC045/// 11/08 Q1011 W (280°) 15.0mph 11°C 8°C
13/01/19 18:50 EGMD 131850Z AUTO 28012KT 9999 FEW023/// SCT028/// BKN034/// 11/08 Q1011 W (280°) 13.8mph 11°C 8°C
13/01/19 17:50 EGMD 131750Z 28013KT 9999 BKN022 BKN027 11/08 Q1011 W (280°) 15.0mph 11°C 8°C
13/01/19 17:20 EGMD 131720Z 29016KT 9999 BKN023 BKN028 11/08 Q1011 WNW (290°) 18.4mph 11°C 8°C
13/01/19 16:50 EGMD 131650Z 28016KT 9999 SCT024 SCT035 12/08 Q1010 W (280°) 18.4mph 12°C 8°C
13/01/19 16:20 EGMD 131620Z 28014KT 9999 BKN024 BKN042 12/08 Q1011 W (280°) 16.1mph 12°C 8°C
13/01/19 15:50 EGMD 131550Z 29014KT 9999 SCT023 BKN042 12/09 Q1011 WNW (290°) 16.1mph 12°C 9°C
13/01/19 15:20 EGMD 131520Z 30013KT 9999 BKN023 12/09 Q1011 WNW (300°) 15.0mph 12°C 9°C
13/01/19 14:50 EGMD 131450Z 28011KT 9999 FEW023 12/09 Q1010 W (280°) 12.7mph 12°C 9°C
13/01/19 14:20 EGMD 131420Z 26010KT 9999 SCT024 12/09 Q1011 W (260°) 11.5mph 12°C 9°C
13/01/19 13:50 EGMD 131350Z 27012KT 9999 SCT026 12/09 Q1011 W (270°) 13.8mph 12°C 9°C
13/01/19 13:20 EGMD 131320Z 27012KT 9999 FEW028 12/08 Q1011 W (270°) 13.8mph 12°C 8°C
13/01/19 12:20 EGMD 131220Z 28017KT CAVOK 11/08 Q1012 W (280°) 19.6mph 11°C 8°C
13/01/19 11:50 EGMD 131150Z 27011KT CAVOK 10/08 Q1012 W (270°) 12.7mph 10°C 8°C
13/01/19 11:20 EGMD 131120Z 27012KT CAVOK 10/08 Q1013 W (270°) 13.8mph 10°C 8°C
13/01/19 10:50 EGMD 131050Z 26011KT 9999 FEW035 10/08 Q1013 W (260°) 12.7mph 10°C 8°C
13/01/19 10:20 EGMD 131020Z 27013KT 9999 -RA NSC 10/08 Q1013 -RA W (270°) 15.0mph 10°C 8°C
13/01/19 09:50 EGMD 130950Z 28015KT 9999 -RA NSC 11/08 Q1014 -RA W (280°) 17.3mph 11°C 8°C
13/01/19 09:20 EGMD 130920Z 28013KT 9999 -RA FEW020 11/08 Q1014 -RA W (280°) 15.0mph 11°C 8°C
13/01/19 08:50 EGMD 130850Z 27012KT 9999 FEW020 11/08 Q1014 W (270°) 13.8mph 11°C 8°C
13/01/19 08:20 EGMD 130820Z 28010KT 9999 SCT020 10/08 Q1014 W (280°) 11.5mph 10°C 8°C
13/01/19 07:50 EGMD 130750Z AUTO 29012KT 9999 NCD 11/08 Q1015 WNW (290°) 13.8mph 11°C 8°C
13/01/19 07:20 EGMD 130720Z AUTO 28013KT 9999 NCD 10/08 Q1014 W (280°) 15.0mph 10°C 8°C
13/01/19 06:50 EGMD 130650Z AUTO 28014KT 9999 NCD 10/08 Q1014 W (280°) 16.1mph 10°C 8°C
13/01/19 06:20 EGMD 130620Z AUTO 28014KT 9999 FEW018/// 10/08 Q1015 W (280°) 16.1mph 10°C 8°C
13/01/19 05:50 EGMD 130550Z AUTO 28013KT 9999 NCD 10/08 Q1015 W (280°) 15.0mph 10°C 8°C
13/01/19 05:20 EGMD 130520Z AUTO 28011KT 9999 NCD 10/08 Q1015 W (280°) 12.7mph 10°C 8°C
13/01/19 04:50 EGMD 130450Z AUTO 28012KT 9999 FEW023/// 10/08 Q1016 W (280°) 13.8mph 10°C 8°C
13/01/19 04:20 EGMD 130420Z AUTO 28013KT 9999 SCT023/// 10/07 Q1016 W (280°) 15.0mph 10°C 7°C
13/01/19 03:50 EGMD 130350Z AUTO 27012KT 9999 NCD 10/07 Q1016 W (270°) 13.8mph 10°C 7°C
13/01/19 03:20 EGMD 130320Z AUTO 28013KT 9999 NCD 10/07 Q1017 W (280°) 15.0mph 10°C 7°C
13/01/19 02:50 EGMD 130250Z AUTO 28014KT 9999 NCD 10/07 Q1017 W (280°) 16.1mph 10°C 7°C
13/01/19 02:20 EGMD 130220Z AUTO 27009KT 9999 SCT028/// 09/07 Q1017 W (270°) 10.4mph 9°C 7°C
13/01/19 01:50 EGMD 130150Z AUTO 29011KT 9999 BKN026/// 09/07 Q1017 WNW (290°) 12.7mph 9°C 7°C
13/01/19 01:20 EGMD 130120Z AUTO 28012KT 9999 OVC024/// 10/07 Q1017 W (280°) 13.8mph 10°C 7°C
13/01/19 00:50 EGMD 130050Z AUTO 28012KT 9999 SCT026/// 09/07 Q1017 W (280°) 13.8mph 9°C 7°C
13/01/19 00:20 EGMD 130020Z AUTO 26009KT 9999 BKN026/// BKN048/// 09/07 Q1018 W (260°) 10.4mph 9°C 7°C
12/01/19 23:50 EGMD 122350Z AUTO 27011KT 9999 BKN025/// OVC047/// 09/07 Q1018 W (270°) 12.7mph 9°C 7°C
12/01/19 23:20 EGMD 122320Z AUTO 27011KT 9999 OVC023/// 09/07 Q1018 W (270°) 12.7mph 9°C 7°C
12/01/19 22:50 EGMD 122250Z AUTO 26009KT 9999 OVC023/// 09/07 Q1018 W (260°) 10.4mph 9°C 7°C
12/01/19 22:20 EGMD 122220Z AUTO 26010KT 9999 OVC023/// 09/07 Q1019 W (260°) 11.5mph 9°C 7°C
12/01/19 21:50 EGMD 122150Z AUTO 27011KT 9999 BKN022/// OVC039/// 09/07 Q1019 W (270°) 12.7mph 9°C 7°C